Weather History for Williamsburg, VA

Change the Weather History Date:

Wednesday, July 17, 2013

  Actual Average Record
Temperature  
Mean Temperature 84 °F -  
Max Temperature 96 °F 88 °F 98 °F (1980)
Min Temperature 73 °F 67 °F 55 °F (1954)
Cooling Degree Days 20    
Growing Degree Days 34 (Base 50)    
Moisture  
Dew Point 74 °F    
Average Humidity 75    
Maximum Humidity 94    
Minimum Humidity 47    
Precipitation  
Precipitation 0.00 in - - ()
Sea Level Pressure  
Sea Level Pressure 30.17 in    
Wind  
Wind Speed 1 mph (North)    
Max Wind Speed 6 mph    
Max Gust Speed -    
Visibility 10 miles    
Events      
Averages and records for this station are not official NWS values.
T = Trace of Precipitation, MM = Missing Value Source: NWS Daily Summary

Daily Weather History Graph

Daily Weather History Graph

Search for Another Location

Airport:

Trip Planner

Search our weather history database for the weather conditions in past years. The results will help you decide how hot, cold, wet, or windy it might be!

Date:

Astronomy

Jul. 17, 2013 Rise Set
Actual Time 5:59 AM EDT 8:25 PM EDT
Civil Twilight 5:30 AM EDT 8:55 PM EDT
Nautical Twilight 4:52 AM EDT 9:32 PM EDT
Astronomical Twilight 4:12 AM EDT 10:13 PM EDT
Moon 3:14 PM EDT (7/17) 1:02 AM EDT (7/17)
Length of Visible Light 15h 25m
Length of Day
14h 25m
Waxing Gibbous, 67% of the Moon is Illuminated
Jul 17
Waxing Gibbous
Jul 22
Full
Jul 29
Last Quarter
Aug 6
New
Aug 14
First Quarter

Hourly Weather History & Observations

Time (EDT) Temp. Heat Index Dew Point Humidity Pressure Visibility Wind Dir Wind Speed Gust Speed Precip Events Conditions
12:15 AM 78.8 °F - 73.4 °F 83% 30.20 in 10.0 mi Calm Calm - N/A   Clear
12:35 AM 77.0 °F - 73.4 °F 89% 30.19 in 10.0 mi Calm Calm - N/A   Clear
12:55 AM 75.2 °F - 73.4 °F 94% 30.19 in 10.0 mi Calm Calm - N/A   Clear
1:15 AM 75.2 °F - 73.4 °F 94% 30.19 in 10.0 mi Calm Calm - N/A   Clear
1:35 AM 75.2 °F - 71.6 °F 89% 30.18 in 10.0 mi Calm Calm - N/A   Clear
1:55 AM 75.2 °F - 71.6 °F 89% 30.19 in 10.0 mi Calm Calm - N/A   Clear
2:15 AM 75.2 °F - 71.6 °F 89% 30.18 in 10.0 mi Calm Calm - N/A   Clear
2:35 AM 75.2 °F - 71.6 °F 89% 30.18 in 10.0 mi Calm Calm - N/A   Clear
2:55 AM 75.2 °F - 71.6 °F 89% 30.18 in 10.0 mi Calm Calm - N/A   Clear
3:15 AM 75.2 °F - 71.6 °F 89% 30.18 in 10.0 mi WNW 3.5 mph - N/A   Clear
3:35 AM 75.2 °F - 71.6 °F 89% 30.18 in 10.0 mi Calm Calm - N/A   Clear
3:55 AM 75.2 °F - 71.6 °F 89% 30.19 in 10.0 mi Calm Calm - N/A   Clear
4:15 AM 75.2 °F - 71.6 °F 89% 30.19 in 10.0 mi Calm Calm - N/A   Clear
4:35 AM 75.2 °F - 71.6 °F 89% 30.19 in 7.0 mi NW 3.5 mph - N/A   Clear
4:55 AM 75.2 °F - 73.4 °F 94% 30.19 in 7.0 mi WNW 3.5 mph - N/A   Clear
5:15 AM 75.2 °F - 73.4 °F 94% 30.19 in 7.0 mi Calm Calm - N/A   Clear
5:35 AM 75.2 °F - 71.6 °F 89% 30.19 in 7.0 mi NW 3.5 mph - N/A   Clear
5:55 AM 73.4 °F - 71.6 °F 94% 30.19 in 7.0 mi Calm Calm - N/A   Clear
6:15 AM 73.4 °F - 71.6 °F 94% 30.20 in 5.0 mi Calm Calm - N/A   Clear
6:35 AM 75.2 °F - 73.4 °F 94% 30.20 in 7.0 mi Calm Calm - N/A   Clear
6:55 AM 75.2 °F - 73.4 °F 94% 30.21 in 7.0 mi NNW 3.5 mph - N/A   Clear
7:15 AM 75.2 °F - 73.4 °F 94% 30.21 in 10.0 mi NNW 3.5 mph - N/A   Clear
7:35 AM 75.2 °F - 73.4 °F 94% 30.21 in 10.0 mi North 4.6 mph - N/A   Clear
7:55 AM 77.0 °F - 75.2 °F 94% 30.21 in 10.0 mi North 3.5 mph - N/A   Clear
8:15 AM 78.8 °F - 75.2 °F 89% 30.21 in 10.0 mi Calm Calm - N/A   Clear
8:35 AM 80.6 °F 86.2 °F 75.2 °F 84% 30.21 in 10.0 mi North 4.6 mph - N/A   Clear
8:55 AM 80.6 °F 86.2 °F 75.2 °F 84% 30.21 in 10.0 mi North 4.6 mph - N/A   Clear
9:15 AM 82.4 °F 89.5 °F 75.2 °F 79% 30.21 in 10.0 mi North 3.5 mph - N/A   Clear
9:35 AM 84.2 °F 92.3 °F 75.2 °F 74% 30.20 in 10.0 mi North 4.6 mph - N/A   Clear
9:55 AM 86.0 °F 95.1 °F 75.2 °F 70% 30.20 in 10.0 mi North 4.6 mph - N/A   Clear
10:15 AM 87.8 °F 97.6 °F 75.2 °F 66% 30.21 in 10.0 mi North 4.6 mph - N/A   Clear
10:35 AM 87.8 °F 97.6 °F 75.2 °F 66% 30.21 in 10.0 mi Calm Calm - N/A   Clear
10:55 AM 89.6 °F 99.8 °F 75.2 °F 62% 30.21 in 10.0 mi WNW 4.6 mph - N/A   Clear
11:15 AM 91.4 °F 102.5 °F 75.2 °F 59% 30.21 in 10.0 mi NW 3.5 mph - N/A   Clear
11:35 AM 91.4 °F 105.1 °F 77.0 °F 63% 30.20 in 10.0 mi NNW 4.6 mph - N/A   Clear
11:55 AM 93.2 °F 105.0 °F 75.2 °F 56% 30.21 in 10.0 mi WNW 3.5 mph - N/A   Scattered Clouds
12:15 PM 93.2 °F 105.0 °F 75.2 °F 56% 30.20 in 10.0 mi Calm Calm - N/A   Scattered Clouds
12:35 PM 95.0 °F 107.4 °F 75.2 °F 53% 30.20 in 10.0 mi NE 4.6 mph - N/A   Scattered Clouds
12:55 PM 95.0 °F 107.4 °F 75.2 °F 53% 30.19 in 10.0 mi ENE 4.6 mph - N/A   Clear
1:15 PM 96.8 °F 109.6 °F 75.2 °F 50% 30.19 in 10.0 mi NNW 4.6 mph - N/A   Scattered Clouds
1:35 PM 96.8 °F 109.6 °F 75.2 °F 50% 30.19 in 10.0 mi Calm Calm - N/A   Scattered Clouds
1:55 PM 95.0 °F 107.4 °F 75.2 °F 53% 30.18 in 10.0 mi ENE 3.5 mph - N/A   Scattered Clouds
2:15 PM 96.8 °F 109.6 °F 75.2 °F 50% 30.17 in 10.0 mi Calm Calm - N/A   Clear
2:35 PM 96.8 °F 107.3 °F 73.4 °F 47% 30.16 in 10.0 mi Calm Calm - N/A   Clear
2:55 PM 96.8 °F 107.3 °F 73.4 °F 47% 30.16 in 10.0 mi North 3.5 mph - N/A   Scattered Clouds
3:15 PM 96.8 °F 109.6 °F 75.2 °F 50% 30.16 in 10.0 mi ESE 3.5 mph - N/A   Scattered Clouds
3:35 PM 95.0 °F 107.4 °F 75.2 °F 53% 30.15 in 10.0 mi Calm Calm - N/A   Scattered Clouds
3:55 PM 95.0 °F 107.4 °F 75.2 °F 53% 30.14 in 10.0 mi East 3.5 mph - N/A   Clear
4:15 PM 93.2 °F 105.0 °F 75.2 °F 56% 30.14 in 10.0 mi Calm Calm - N/A   Scattered Clouds
4:35 PM 91.4 °F 102.5 °F 75.2 °F 59% 30.13 in 10.0 mi East 4.6 mph - N/A   Scattered Clouds
4:55 PM 93.2 °F 105.0 °F 75.2 °F 56% 30.13 in 10.0 mi East 4.6 mph - N/A   Scattered Clouds
5:15 PM 93.2 °F 107.2 °F 77.0 °F 59% 30.12 in 10.0 mi ESE 3.5 mph - N/A   Clear
5:35 PM 91.4 °F 102.5 °F 75.2 °F 59% 30.12 in 10.0 mi ESE 3.5 mph - N/A   Scattered Clouds
5:55 PM 91.4 °F 102.5 °F 75.2 °F 59% 30.12 in 10.0 mi East 3.5 mph - N/A   Scattered Clouds
6:15 PM 89.6 °F 99.8 °F 75.2 °F 62% 30.12 in 10.0 mi Calm Calm - N/A   Clear
6:35 PM 89.6 °F 99.8 °F 75.2 °F 62% 30.12 in 10.0 mi Calm Calm - N/A   Clear
6:55 PM 87.8 °F 97.6 °F 75.2 °F 66% 30.12 in 10.0 mi Calm Calm - N/A   Clear
7:15 PM 87.8 °F 97.6 °F 75.2 °F 66% 30.12 in 10.0 mi Calm Calm - N/A   Clear
7:35 PM 84.2 °F 92.3 °F 75.2 °F 74% 30.12 in 10.0 mi Calm Calm - N/A   Clear
7:55 PM 82.4 °F 89.5 °F 75.2 °F 79% 30.12 in 10.0 mi Calm Calm - N/A   Scattered Clouds
8:15 PM 82.4 °F 89.5 °F 75.2 °F 79% 30.12 in 10.0 mi Calm Calm - N/A   Scattered Clouds
8:35 PM 82.4 °F 90.9 °F 77.0 °F 84% 30.13 in 10.0 mi Calm Calm - N/A   Scattered Clouds
8:55 PM 80.6 °F 87.1 °F 77.0 °F 89% 30.13 in 10.0 mi Calm Calm - N/A   Clear
9:15 PM 80.6 °F 87.1 °F 77.0 °F 89% 30.13 in 10.0 mi Calm Calm - N/A   Clear
9:35 PM 80.6 °F 87.1 °F 77.0 °F 89% 30.14 in 10.0 mi Calm Calm - N/A   Scattered Clouds
9:55 PM 80.6 °F 87.1 °F 77.0 °F 89% 30.14 in 10.0 mi Calm Calm - N/A   Mostly Cloudy
10:15 PM 80.6 °F 87.1 °F 77.0 °F 89% 30.14 in 10.0 mi Calm Calm - N/A   Overcast
10:35 PM 80.6 °F 87.1 °F 77.0 °F 89% 30.15 in 10.0 mi South 5.8 mph - N/A   Scattered Clouds
10:55 PM 80.6 °F 86.2 °F 75.2 °F 84% 30.14 in 10.0 mi South 4.6 mph - N/A   Scattered Clouds
11:15 PM 80.6 °F 85.4 °F 73.4 °F 79% 30.14 in 10.0 mi SSW 3.5 mph - N/A   Clear
11:35 PM 82.4 °F 89.5 °F 75.2 °F 79% 30.15 in 10.0 mi Calm Calm - N/A   Clear
11:55 PM 80.6 °F 86.2 °F 75.2 °F 84% 30.15 in 10.0 mi Calm Calm - N/A   Clear